sensor_id;sensor_type;location;lat;lon;timestamp;pressure;altitude;pressure_sealevel;temperature;humidity
48668;BME280;34453;52.198;5.004;2023-08-24T00:01:08;102050.09;;;18.10;100.00
48668;BME280;34453;52.198;5.004;2023-08-24T00:03:35;102060.34;;;18.13;100.00
48668;BME280;34453;52.198;5.004;2023-08-24T00:06:00;102053.38;;;18.12;100.00
48668;BME280;34453;52.198;5.004;2023-08-24T00:08:26;102054.53;;;18.09;100.00
48668;BME280;34453;52.198;5.004;2023-08-24T00:10:52;102045.94;;;18.07;100.00
48668;BME280;34453;52.198;5.004;2023-08-24T00:13:17;102047.59;;;18.08;100.00
48668;BME280;34453;52.198;5.004;2023-08-24T00:15:43;102048.09;;;18.12;100.00
48668;BME280;34453;52.198;5.004;2023-08-24T00:18:08;102052.94;;;18.16;100.00
48668;BME280;34453;52.198;5.004;2023-08-24T00:20:33;102043.81;;;18.19;100.00
48668;BME280;34453;52.198;5.004;2023-08-24T00:22:59;102038.19;;;18.22;100.00
48668;BME280;34453;52.198;5.004;2023-08-24T00:25:25;102024.94;;;18.22;100.00
48668;BME280;34453;52.198;5.004;2023-08-24T00:27:52;102019.50;;;18.23;100.00
48668;BME280;34453;52.198;5.004;2023-08-24T00:30:18;102013.53;;;18.21;100.00
48668;BME280;34453;52.198;5.004;2023-08-24T00:32:43;102006.91;;;18.26;100.00
48668;BME280;34453;52.198;5.004;2023-08-24T00:35:09;102011.88;;;18.29;100.00
48668;BME280;34453;52.198;5.004;2023-08-24T00:37:36;102009.91;;;18.31;100.00
48668;BME280;34453;52.198;5.004;2023-08-24T00:40:03;102015.88;;;18.33;100.00
48668;BME280;34453;52.198;5.004;2023-08-24T00:42:42;102025.31;;;18.35;100.00
48668;BME280;34453;52.198;5.004;2023-08-24T00:45:10;102017.19;;;18.37;100.00
48668;BME280;34453;52.198;5.004;2023-08-24T00:47:40;102017.88;;;18.39;100.00
48668;BME280;34453;52.198;5.004;2023-08-24T00:50:07;102031.13;;;18.39;100.00
48668;BME280;34453;52.198;5.004;2023-08-24T00:52:33;102030.44;;;18.37;100.00
48668;BME280;34453;52.198;5.004;2023-08-24T00:54:59;102020.16;;;18.34;100.00
48668;BME280;34453;52.198;5.004;2023-08-24T00:57:27;102017.50;;;18.34;100.00
48668;BME280;34453;52.198;5.004;2023-08-24T00:59:52;102016.53;;;18.35;100.00
48668;BME280;34453;52.198;5.004;2023-08-24T01:02:18;102012.41;;;18.32;100.00
48668;BME280;34453;52.198;5.004;2023-08-24T01:04:46;102008.06;;;18.31;100.00
48668;BME280;34453;52.198;5.004;2023-08-24T01:07:12;102013.22;;;18.33;100.00
48668;BME280;34453;52.198;5.004;2023-08-24T01:09:38;102012.41;;;18.32;100.00
48668;BME280;34453;52.198;5.004;2023-08-24T01:14:44;102017.69;;;18.32;100.00
48668;BME280;34453;52.198;5.004;2023-08-24T01:17:15;102013.88;;;18.27;100.00
48668;BME280;34453;52.198;5.004;2023-08-24T01:19:44;102016.84;;;18.32;100.00
48668;BME280;34453;52.198;5.004;2023-08-24T01:22:23;102023.81;;;18.33;100.00
48668;BME280;34453;52.198;5.004;2023-08-24T01:27:32;102030.75;;;18.34;100.00
48668;BME280;34453;52.198;5.004;2023-08-24T01:30:00;102027.13;;;18.35;100.00
48668;BME280;34453;52.198;5.004;2023-08-24T01:32:26;102015.53;;;18.28;100.00
48668;BME280;34453;52.198;5.004;2023-08-24T01:34:51;102009.06;;;18.30;100.00
48668;BME280;34453;52.198;5.004;2023-08-24T01:37:17;102015.38;;;18.37;100.00
48668;BME280;34453;52.198;5.004;2023-08-24T01:39:47;102003.97;;;18.37;100.00
48668;BME280;34453;52.198;5.004;2023-08-24T01:42:19;102000.94;;;18.32;100.00
48668;BME280;34453;52.198;5.004;2023-08-24T01:44:50;102002.63;;;18.33;100.00
48668;BME280;34453;52.198;5.004;2023-08-24T01:47:17;102003.94;;;18.29;100.00
48668;BME280;34453;52.198;5.004;2023-08-24T01:49:44;102011.06;;;18.28;100.00
48668;BME280;34453;52.198;5.004;2023-08-24T01:52:10;102015.03;;;18.24;100.00
48668;BME280;34453;52.198;5.004;2023-08-24T01:54:37;102011.72;;;18.22;100.00
48668;BME280;34453;52.198;5.004;2023-08-24T01:57:04;102007.06;;;18.16;100.00
48668;BME280;34453;52.198;5.004;2023-08-24T01:59:30;102000.44;;;18.20;100.00
48668;BME280;34453;52.198;5.004;2023-08-24T02:01:56;101997.63;;;18.21;100.00
48668;BME280;34453;52.198;5.004;2023-08-24T02:04:21;101985.88;;;18.16;100.00
48668;BME280;34453;52.198;5.004;2023-08-24T02:06:46;101986.19;;;18.13;100.00
48668;BME280;34453;52.198;5.004;2023-08-24T02:09:12;101987.38;;;18.10;100.00
48668;BME280;34453;52.198;5.004;2023-08-24T02:11:37;101992.47;;;18.12;100.00
48668;BME280;34453;52.198;5.004;2023-08-24T02:14:03;101991.00;;;18.09;100.00
48668;BME280;34453;52.198;5.004;2023-08-24T02:16:29;101989.16;;;18.01;100.00
48668;BME280;34453;52.198;5.004;2023-08-24T02:18:55;101986.38;;;18.03;100.00
48668;BME280;34453;52.198;5.004;2023-08-24T02:21:20;101979.72;;;17.99;100.00
48668;BME280;34453;52.198;5.004;2023-08-24T02:23:46;101971.44;;;18.02;100.00
48668;BME280;34453;52.198;5.004;2023-08-24T02:26:12;101976.91;;;18.00;100.00
48668;BME280;34453;52.198;5.004;2023-08-24T02:28:38;101962.50;;;17.95;100.00
48668;BME280;34453;52.198;5.004;2023-08-24T02:31:04;101956.53;;;17.93;100.00
48668;BME280;34453;52.198;5.004;2023-08-24T02:33:30;101956.88;;;17.90;100.00
48668;BME280;34453;52.198;5.004;2023-08-24T02:35:56;101947.91;;;17.83;100.00
48668;BME280;34453;52.198;5.004;2023-08-24T02:38:23;101949.53;;;17.75;100.00
48668;BME280;34453;52.198;5.004;2023-08-24T02:40:49;101944.38;;;17.74;100.00
48668;BME280;34453;52.198;5.004;2023-08-24T02:43:14;101943.88;;;17.70;100.00
48668;BME280;34453;52.198;5.004;2023-08-24T02:45:39;101940.06;;;17.65;100.00
48668;BME280;34453;52.198;5.004;2023-08-24T02:48:05;101931.97;;;17.66;100.00
48668;BME280;34453;52.198;5.004;2023-08-24T02:50:31;101917.72;;;17.67;100.00
48668;BME280;34453;52.198;5.004;2023-08-24T02:52:56;101926.66;;;17.66;100.00
48668;BME280;34453;52.198;5.004;2023-08-24T02:55:24;101918.88;;;17.65;100.00
48668;BME280;34453;52.198;5.004;2023-08-24T02:57:49;101930.97;;;17.59;100.00
48668;BME280;34453;52.198;5.004;2023-08-24T03:00:15;101947.13;;;17.56;100.00
48668;BME280;34453;52.198;5.004;2023-08-24T03:02:40;101955.75;;;17.58;100.00
48668;BME280;34453;52.198;5.004;2023-08-24T03:05:06;101947.50;;;17.61;100.00
48668;BME280;34453;52.198;5.004;2023-08-24T03:07:31;101941.34;;;17.60;100.00
48668;BME280;34453;52.198;5.004;2023-08-24T03:09:57;101936.72;;;17.54;100.00
48668;BME280;34453;52.198;5.004;2023-08-24T03:12:22;101937.72;;;17.53;100.00
48668;BME280;34453;52.198;5.004;2023-08-24T03:14:51;101920.50;;;17.49;100.00
48668;BME280;34453;52.198;5.004;2023-08-24T03:17:17;101916.34;;;17.47;100.00
48668;BME280;34453;52.198;5.004;2023-08-24T03:19:43;101904.63;;;17.41;100.00
48668;BME280;34453;52.198;5.004;2023-08-24T03:22:08;101906.25;;;17.42;100.00
48668;BME280;34453;52.198;5.004;2023-08-24T03:24:34;101898.16;;;17.44;100.00
48668;BME280;34453;52.198;5.004;2023-08-24T03:26:59;101906.44;;;17.49;100.00
48668;BME280;34453;52.198;5.004;2023-08-24T03:29:24;101903.94;;;17.47;100.00
48668;BME280;34453;52.198;5.004;2023-08-24T03:31:50;101903.78;;;17.49;100.00
48668;BME280;34453;52.198;5.004;2023-08-24T03:34:15;101899.19;;;17.51;100.00
48668;BME280;34453;52.198;5.004;2023-08-24T03:36:41;101901.00;;;17.50;100.00
48668;BME280;34453;52.198;5.004;2023-08-24T03:39:07;101900.00;;;17.51;100.00
48668;BME280;34453;52.198;5.004;2023-08-24T03:41:32;101905.47;;;17.50;100.00
48668;BME280;34453;52.198;5.004;2023-08-24T03:43:59;101889.91;;;17.47;100.00
48668;BME280;34453;52.198;5.004;2023-08-24T03:46:24;101893.38;;;17.39;100.00
48668;BME280;34453;52.198;5.004;2023-08-24T03:48:49;101895.81;;;17.40;100.00
48668;BME280;34453;52.198;5.004;2023-08-24T03:51:15;101890.53;;;17.40;100.00
48668;BME280;34453;52.198;5.004;2023-08-24T03:53:40;101885.75;;;17.44;100.00
48668;BME280;34453;52.198;5.004;2023-08-24T03:56:06;101887.88;;;17.40;100.00
48668;BME280;34453;52.198;5.004;2023-08-24T03:58:31;101893.03;;;17.42;100.00
48668;BME280;34453;52.198;5.004;2023-08-24T04:00:57;101890.06;;;17.45;100.00
48668;BME280;34453;52.198;5.004;2023-08-24T04:03:22;101899.00;;;17.44;100.00
48668;BME280;34453;52.198;5.004;2023-08-24T04:05:47;101901.78;;;17.43;100.00
48668;BME280;34453;52.198;5.004;2023-08-24T04:08:13;101901.13;;;17.40;100.00
48668;BME280;34453;52.198;5.004;2023-08-24T04:10:38;101894.38;;;17.46;100.00
48668;BME280;34453;52.198;5.004;2023-08-24T04:13:04;101905.78;;;17.47;100.00
48668;BME280;34453;52.198;5.004;2023-08-24T04:15:29;101902.16;;;17.48;100.00
48668;BME280;34453;52.198;5.004;2023-08-24T04:17:55;101910.41;;;17.45;100.00
48668;BME280;34453;52.198;5.004;2023-08-24T04:20:20;101905.78;;;17.47;100.00
48668;BME280;34453;52.198;5.004;2023-08-24T04:22:46;101906.59;;;17.47;100.00
48668;BME280;34453;52.198;5.004;2023-08-24T04:25:11;101914.38;;;17.49;100.00
48668;BME280;34453;52.198;5.004;2023-08-24T04:27:37;101907.59;;;17.46;100.00
48668;BME280;34453;52.198;5.004;2023-08-24T04:30:03;101906.59;;;17.47;100.00
48668;BME280;34453;52.198;5.004;2023-08-24T04:32:28;101908.75;;;17.52;100.00
48668;BME280;34453;52.198;5.004;2023-08-24T04:34:54;101895.72;;;17.50;100.00
48668;BME280;34453;52.198;5.004;2023-08-24T04:37:19;101895.38;;;17.53;100.00
48668;BME280;34453;52.198;5.004;2023-08-24T04:39:46;101892.06;;;17.51;100.00
48668;BME280;34453;52.198;5.004;2023-08-24T04:42:11;101895.19;;;17.47;100.00
48668;BME280;34453;52.198;5.004;2023-08-24T04:44:36;101899.81;;;17.45;100.00
48668;BME280;34453;52.198;5.004;2023-08-24T04:47:02;101902.31;;;17.46;100.00
48668;BME280;34453;52.198;5.004;2023-08-24T04:49:29;101899.66;;;17.46;100.00
48668;BME280;34453;52.198;5.004;2023-08-24T04:51:55;101893.56;;;17.46;100.00
48668;BME280;34453;52.198;5.004;2023-08-24T04:54:20;101890.06;;;17.45;100.00
48668;BME280;34453;52.198;5.004;2023-08-24T04:56:46;101890.72;;;17.47;100.00
48668;BME280;34453;52.198;5.004;2023-08-24T04:59:12;101890.41;;;17.50;100.00
48668;BME280;34453;52.198;5.004;2023-08-24T05:01:37;101887.59;;;17.52;100.00
48668;BME280;34453;52.198;5.004;2023-08-24T05:04:03;101879.00;;;17.50;100.00
48668;BME280;34453;52.198;5.004;2023-08-24T05:06:28;101875.38;;;17.51;100.00
48668;BME280;34453;52.198;5.004;2023-08-24T05:08:54;101881.66;;;17.58;100.00
48668;BME280;34453;52.198;5.004;2023-08-24T05:11:22;101870.09;;;17.59;100.00
48668;BME280;34453;52.198;5.004;2023-08-24T05:13:50;101864.16;;;17.57;100.00
48668;BME280;34453;52.198;5.004;2023-08-24T05:16:16;101854.53;;;17.56;100.00
48668;BME280;34453;52.198;5.004;2023-08-24T05:18:41;101848.75;;;17.52;100.00
48668;BME280;34453;52.198;5.004;2023-08-24T05:21:07;101847.59;;;17.55;100.00
48668;BME280;34453;52.198;5.004;2023-08-24T05:23:33;101845.28;;;17.60;100.00
48668;BME280;34453;52.198;5.004;2023-08-24T05:25:59;101843.63;;;17.67;100.00
48668;BME280;34453;52.198;5.004;2023-08-24T05:28:26;101835.53;;;17.69;100.00
48668;BME280;34453;52.198;5.004;2023-08-24T05:30:52;101830.41;;;17.75;100.00
48668;BME280;34453;52.198;5.004;2023-08-24T05:33:19;101815.38;;;17.76;100.00
48668;BME280;34453;52.198;5.004;2023-08-24T05:35:45;101818.66;;;17.78;100.00
48668;BME280;34453;52.198;5.004;2023-08-24T05:38:12;101814.38;;;17.77;100.00
48668;BME280;34453;52.198;5.004;2023-08-24T05:40:37;101812.22;;;17.80;100.00
48668;BME280;34453;52.198;5.004;2023-08-24T05:43:04;101809.09;;;17.85;100.00
48668;BME280;34453;52.198;5.004;2023-08-24T05:45:29;101815.56;;;17.83;100.00
48668;BME280;34453;52.198;5.004;2023-08-24T05:47:55;101805.66;;;17.93;100.00
48668;BME280;34453;52.198;5.004;2023-08-24T05:50:20;101804.66;;;18.02;100.00
48668;BME280;34453;52.198;5.004;2023-08-24T05:52:46;101792.41;;;18.01;100.00
48668;BME280;34453;52.198;5.004;2023-08-24T05:55:11;101802.16;;;18.09;100.00
48668;BME280;34453;52.198;5.004;2023-08-24T05:57:37;101798.19;;;18.13;100.00
48668;BME280;34453;52.198;5.004;2023-08-24T06:00:03;101790.09;;;18.14;100.00
48668;BME280;34453;52.198;5.004;2023-08-24T06:02:31;101794.03;;;18.18;100.00
48668;BME280;34453;52.198;5.004;2023-08-24T06:04:56;101781.13;;;18.23;100.00
48668;BME280;34453;52.198;5.004;2023-08-24T06:07:22;101769.34;;;18.26;100.00
48668;BME280;34453;52.198;5.004;2023-08-24T06:09:47;101763.91;;;18.28;100.00
48668;BME280;34453;52.198;5.004;2023-08-24T06:12:13;101760.56;;;18.34;100.00
48668;BME280;34453;52.198;5.004;2023-08-24T06:14:38;101760.19;;;18.45;100.00
48668;BME280;34453;52.198;5.004;2023-08-24T06:17:04;101764.34;;;18.48;100.00
48668;BME280;34453;52.198;5.004;2023-08-24T06:19:30;101759.19;;;18.54;100.00
48668;BME280;34453;52.198;5.004;2023-08-24T06:21:55;101754.66;;;18.63;100.00
48668;BME280;34453;52.198;5.004;2023-08-24T06:24:21;101744.03;;;18.71;100.00
48668;BME280;34453;52.198;5.004;2023-08-24T06:26:46;101744.84;;;18.80;100.00
48668;BME280;34453;52.198;5.004;2023-08-24T06:29:12;101736.53;;;18.83;100.00
48668;BME280;34453;52.198;5.004;2023-08-24T06:31:37;101728.59;;;18.83;100.00
48668;BME280;34453;52.198;5.004;2023-08-24T06:34:02;101736.84;;;18.88;100.00
48668;BME280;34453;52.198;5.004;2023-08-24T06:36:28;101730.88;;;18.94;100.00
48668;BME280;34453;52.198;5.004;2023-08-24T06:38:55;101718.72;;;19.00;100.00
48668;BME280;34453;52.198;5.004;2023-08-24T06:41:20;101727.44;;;19.09;100.00
48668;BME280;34453;52.198;5.004;2023-08-24T06:43:46;101716.16;;;19.15;100.00
48668;BME280;34453;52.198;5.004;2023-08-24T06:46:11;101707.28;;;19.22;100.00
48668;BME280;34453;52.198;5.004;2023-08-24T06:48:37;101709.78;;;19.24;100.00
48668;BME280;34453;52.198;5.004;2023-08-24T06:51:03;101704.22;;;19.34;100.00
48668;BME280;34453;52.198;5.004;2023-08-24T06:53:28;101704.69;;;19.37;100.00
48668;BME280;34453;52.198;5.004;2023-08-24T06:55:57;101710.94;;;19.44;100.00
48668;BME280;34453;52.198;5.004;2023-08-24T06:58:23;101713.25;;;19.48;100.00
48668;BME280;34453;52.198;5.004;2023-08-24T07:00:48;101722.47;;;19.52;100.00
48668;BME280;34453;52.198;5.004;2023-08-24T07:03:19;101709.44;;;19.65;100.00
48668;BME280;34453;52.198;5.004;2023-08-24T07:05:47;101712.81;;;19.82;100.00
48668;BME280;34453;52.198;5.004;2023-08-24T07:08:13;101720.22;;;19.86;100.00
48668;BME280;34453;52.198;5.004;2023-08-24T07:10:39;101695.06;;;19.97;100.00
48668;BME280;34453;52.198;5.004;2023-08-24T07:13:06;101680.13;;;20.11;100.00
48668;BME280;34453;52.198;5.004;2023-08-24T07:15:32;101684.97;;;20.22;100.00
48668;BME280;34453;52.198;5.004;2023-08-24T07:18:03;101678.94;;;20.28;100.00
48668;BME280;34453;52.198;5.004;2023-08-24T07:20:32;101688.44;;;20.38;100.00
48668;BME280;34453;52.198;5.004;2023-08-24T07:22:57;101689.41;;;20.52;100.00
48668;BME280;34453;52.198;5.004;2023-08-24T07:25:23;101683.41;;;20.58;100.00
48668;BME280;34453;52.198;5.004;2023-08-24T07:27:48;101676.69;;;20.62;100.00
48668;BME280;34453;52.198;5.004;2023-08-24T07:30:14;101687.09;;;20.78;100.00
48668;BME280;34453;52.198;5.004;2023-08-24T07:32:40;101669.03;;;20.74;100.00
48668;BME280;34453;52.198;5.004;2023-08-24T07:35:06;101665.53;;;20.88;100.00
48668;BME280;34453;52.198;5.004;2023-08-24T07:37:32;101670.63;;;20.89;100.00
48668;BME280;34453;52.198;5.004;2023-08-24T07:39:58;101677.06;;;20.95;100.00
48668;BME280;34453;52.198;5.004;2023-08-24T07:42:23;101680.41;;;21.04;100.00
48668;BME280;34453;52.198;5.004;2023-08-24T07:44:49;101684.13;;;21.09;100.00
48668;BME280;34453;52.198;5.004;2023-08-24T07:47:15;101675.56;;;21.14;100.00
48668;BME280;34453;52.198;5.004;2023-08-24T07:49:41;101672.84;;;21.29;100.00
48668;BME280;34453;52.198;5.004;2023-08-24T07:52:11;101668.03;;;21.39;100.00
48668;BME280;34453;52.198;5.004;2023-08-24T07:54:37;101670.19;;;21.50;100.00
48668;BME280;34453;52.198;5.004;2023-08-24T07:57:04;101674.34;;;21.60;100.00
48668;BME280;34453;52.198;5.004;2023-08-24T07:59:29;101665.84;;;21.71;100.00
48668;BME280;34453;52.198;5.004;2023-08-24T08:01:55;101666.53;;;21.86;100.00
48668;BME280;34453;52.198;5.004;2023-08-24T08:04:20;101658.59;;;21.93;100.00
48668;BME280;34453;52.198;5.004;2023-08-24T08:06:46;101656.44;;;22.10;100.00
48668;BME280;34453;52.198;5.004;2023-08-24T08:09:11;101646.34;;;22.05;100.00
48668;BME280;34453;52.198;5.004;2023-08-24T08:11:37;101649.44;;;22.09;100.00
48668;BME280;34453;52.198;5.004;2023-08-24T08:14:02;101632.03;;;22.06;100.00
48668;BME280;34453;52.198;5.004;2023-08-24T08:16:28;101642.94;;;22.18;100.00
48668;BME280;34453;52.198;5.004;2023-08-24T08:18:54;101648.53;;;22.23;100.00
48668;BME280;34453;52.198;5.004;2023-08-24T08:21:19;101634.63;;;22.34;100.00
48668;BME280;34453;52.198;5.004;2023-08-24T08:23:45;101631.13;;;22.34;100.00
48668;BME280;34453;52.198;5.004;2023-08-24T08:26:11;101632.16;;;22.33;100.00
48668;BME280;34453;52.198;5.004;2023-08-24T08:28:36;101633.63;;;22.49;100.00
48668;BME280;34453;52.198;5.004;2023-08-24T08:31:02;101625.03;;;22.53;100.00
48668;BME280;34453;52.198;5.004;2023-08-24T08:33:28;101635.91;;;22.59;100.00
48668;BME280;34453;52.198;5.004;2023-08-24T08:35:54;101632.88;;;22.75;100.00
48668;BME280;34453;52.198;5.004;2023-08-24T08:38:19;101626.75;;;22.88;100.00
48668;BME280;34453;52.198;5.004;2023-08-24T08:40:49;101621.63;;;22.86;100.00
48668;BME280;34453;52.198;5.004;2023-08-24T08:43:15;101629.47;;;23.01;100.00
48668;BME280;34453;52.198;5.004;2023-08-24T08:45:40;101627.63;;;23.08;100.00
48668;BME280;34453;52.198;5.004;2023-08-24T08:48:06;101623.09;;;23.29;100.00
48668;BME280;34453;52.198;5.004;2023-08-24T08:50:34;101604.38;;;23.42;100.00
48668;BME280;34453;52.198;5.004;2023-08-24T08:53:00;101605.59;;;23.53;100.00
48668;BME280;34453;52.198;5.004;2023-08-24T08:55:27;101607.00;;;23.69;100.00
48668;BME280;34453;52.198;5.004;2023-08-24T08:57:56;101606.38;;;23.67;100.00
48668;BME280;34453;52.198;5.004;2023-08-24T09:00:23;101599.41;;;23.66;100.00
48668;BME280;34453;52.198;5.004;2023-08-24T09:02:52;101587.06;;;23.65;100.00
48668;BME280;34453;52.198;5.004;2023-08-24T09:05:18;101573.09;;;23.63;100.00
48668;BME280;34453;52.198;5.004;2023-08-24T09:07:46;101565.28;;;23.68;100.00
48668;BME280;34453;52.198;5.004;2023-08-24T09:10:13;101549.47;;;23.73;100.00
48668;BME280;34453;52.198;5.004;2023-08-24T09:12:38;101546.38;;;23.76;100.00
48668;BME280;34453;52.198;5.004;2023-08-24T09:15:07;101550.88;;;23.82;100.00
48668;BME280;34453;52.198;5.004;2023-08-24T09:17:33;101531.16;;;23.76;100.00
48668;BME280;34453;52.198;5.004;2023-08-24T09:20:05;101531.56;;;23.80;100.00
48668;BME280;34453;52.198;5.004;2023-08-24T09:22:38;101540.03;;;23.77;100.00
48668;BME280;34453;52.198;5.004;2023-08-24T09:25:08;101557.25;;;23.81;100.00
48668;BME280;34453;52.198;5.004;2023-08-24T09:27:34;101558.94;;;23.75;100.00
48668;BME280;34453;52.198;5.004;2023-08-24T09:29:59;101566.47;;;23.85;100.00
48668;BME280;34453;52.198;5.004;2023-08-24T09:32:29;101576.59;;;23.76;100.00
48668;BME280;34453;52.198;5.004;2023-08-24T09:34:55;101585.00;;;23.80;100.00
48668;BME280;34453;52.198;5.004;2023-08-24T09:37:21;101579.06;;;23.78;100.00
48668;BME280;34453;52.198;5.004;2023-08-24T09:39:47;101573.06;;;23.83;100.00
48668;BME280;34453;52.198;5.004;2023-08-24T09:42:14;101563.81;;;23.85;100.00
48668;BME280;34453;52.198;5.004;2023-08-24T09:44:46;101558.03;;;23.95;100.00
48668;BME280;34453;52.198;5.004;2023-08-24T09:47:12;101548.31;;;24.00;100.00
48668;BME280;34453;52.198;5.004;2023-08-24T09:49:37;101550.31;;;24.12;100.00
48668;BME280;34453;52.198;5.004;2023-08-24T09:52:06;101533.88;;;24.15;100.00
48668;BME280;34453;52.198;5.004;2023-08-24T09:54:36;101529.75;;;24.19;100.00
48668;BME280;34453;52.198;5.004;2023-08-24T09:57:02;101527.59;;;24.28;100.00
48668;BME280;34453;52.198;5.004;2023-08-24T09:59:31;101531.81;;;24.17;100.00
48668;BME280;34453;52.198;5.004;2023-08-24T10:01:58;101535.13;;;24.12;100.00
48668;BME280;34453;52.198;5.004;2023-08-24T10:04:29;101532.50;;;24.06;100.00
48668;BME280;34453;52.198;5.004;2023-08-24T10:07:03;101523.50;;;23.93;100.00
48668;BME280;34453;52.198;5.004;2023-08-24T10:09:42;101519.63;;;23.83;100.00
48668;BME280;34453;52.198;5.004;2023-08-24T10:12:09;101534.44;;;23.72;100.00
48668;BME280;34453;52.198;5.004;2023-08-24T10:14:44;101545.59;;;23.62;100.00
48668;BME280;34453;52.198;5.004;2023-08-24T10:17:11;101555.06;;;23.51;100.00
48668;BME280;34453;52.198;5.004;2023-08-24T10:19:37;101565.78;;;23.38;100.00
48668;BME280;34453;52.198;5.004;2023-08-24T10:22:05;101570.75;;;23.28;100.00
48668;BME280;34453;52.198;5.004;2023-08-24T10:24:31;101569.91;;;23.21;100.00
48668;BME280;34453;52.198;5.004;2023-08-24T10:26:57;101561.91;;;23.14;100.00
48668;BME280;34453;52.198;5.004;2023-08-24T10:29:25;101564.81;;;23.12;100.00
48668;BME280;34453;52.198;5.004;2023-08-24T10:31:54;101568.91;;;23.08;100.00
48668;BME280;34453;52.198;5.004;2023-08-24T10:34:20;101568.28;;;23.06;100.00
48668;BME280;34453;52.198;5.004;2023-08-24T10:36:47;101563.34;;;23.03;100.00
48668;BME280;34453;52.198;5.004;2023-08-24T10:39:14;101568.91;;;23.08;100.00
48668;BME280;34453;52.198;5.004;2023-08-24T10:41:51;101569.72;;;23.15;100.00
48668;BME280;34453;52.198;5.004;2023-08-24T10:44:25;101577.28;;;23.25;100.00
48668;BME280;34453;52.198;5.004;2023-08-24T10:49:44;101573.78;;;23.38;100.00
48668;BME280;34453;52.198;5.004;2023-08-24T10:52:21;101576.44;;;23.45;100.00
48668;BME280;34453;52.198;5.004;2023-08-24T10:54:51;101583.44;;;23.52;100.00
48668;BME280;34453;52.198;5.004;2023-08-24T10:57:22;101576.00;;;23.61;100.00
48668;BME280;34453;52.198;5.004;2023-08-24T11:00:19;101584.59;;;23.63;100.00
48668;BME280;34453;52.198;5.004;2023-08-24T11:02:49;101579.47;;;23.82;100.00
48668;BME280;34453;52.198;5.004;2023-08-24T11:05:23;101581.81;;;24.03;100.00
48668;BME280;34453;52.198;5.004;2023-08-24T11:07:59;101574.59;;;24.17;100.00
48668;BME280;34453;52.198;5.004;2023-08-24T11:10:37;101561.56;;;24.27;100.00
48668;BME280;34453;52.198;5.004;2023-08-24T11:13:16;101548.16;;;24.34;100.00
48668;BME280;34453;52.198;5.004;2023-08-24T11:15:49;101544.41;;;24.41;100.00
48668;BME280;34453;52.198;5.004;2023-08-24T11:18:27;101538.63;;;24.45;100.00
48668;BME280;34453;52.198;5.004;2023-08-24T11:21:04;101537.41;;;24.40;100.00
48668;BME280;34453;52.198;5.004;2023-08-24T11:23:30;101534.13;;;24.38;100.00
48668;BME280;34453;52.198;5.004;2023-08-24T11:25:58;101543.19;;;24.37;100.00
48668;BME280;34453;52.198;5.004;2023-08-24T11:28:26;101535.78;;;24.39;100.00
48668;BME280;34453;52.198;5.004;2023-08-24T11:30:52;101532.44;;;24.44;100.00
48668;BME280;34453;52.198;5.004;2023-08-24T11:33:47;101529.97;;;24.49;100.00
48668;BME280;34453;52.198;5.004;2023-08-24T11:36:12;101530.19;;;24.48;100.00
48668;BME280;34453;52.198;5.004;2023-08-24T11:38:41;101512.88;;;24.18;100.00
48668;BME280;34453;52.198;5.004;2023-08-24T11:41:14;101516.47;;;24.06;100.00
48668;BME280;34453;52.198;5.004;2023-08-24T11:43:40;101512.19;;;23.91;100.00
48668;BME280;34453;52.198;5.004;2023-08-24T11:46:06;101504.34;;;23.96;100.00
48668;BME280;34453;52.198;5.004;2023-08-24T11:48:31;101509.94;;;23.95;100.00
48668;BME280;34453;52.198;5.004;2023-08-24T11:50:58;101512.38;;;23.96;100.00
48668;BME280;34453;52.198;5.004;2023-08-24T11:53:24;101513.47;;;23.82;100.00
48668;BME280;34453;52.198;5.004;2023-08-24T11:55:53;101508.56;;;23.79;100.00
48668;BME280;34453;52.198;5.004;2023-08-24T11:58:19;101503.44;;;23.71;100.00
48668;BME280;34453;52.198;5.004;2023-08-24T12:00:45;101505.69;;;23.67;100.00
48668;BME280;34453;52.198;5.004;2023-08-24T12:03:12;101493.03;;;23.49;100.00
48668;BME280;34453;52.198;5.004;2023-08-24T12:05:38;101495.53;;;23.37;100.00
48668;BME280;34453;52.198;5.004;2023-08-24T12:08:05;101491.84;;;23.32;100.00
48668;BME280;34453;52.198;5.004;2023-08-24T12:10:30;101496.00;;;23.28;100.00
48668;BME280;34453;52.198;5.004;2023-08-24T12:13:06;101494.78;;;23.24;100.00
48668;BME280;34453;52.198;5.004;2023-08-24T12:15:34;101485.34;;;23.21;100.00
48668;BME280;34453;52.198;5.004;2023-08-24T12:18:10;101495.78;;;23.23;100.00
48668;BME280;34453;52.198;5.004;2023-08-24T12:20:36;101477.94;;;23.16;100.00
48668;BME280;34453;52.198;5.004;2023-08-24T12:23:02;101465.44;;;23.17;100.00
48668;BME280;34453;52.198;5.004;2023-08-24T12:25:28;101449.63;;;23.09;100.00
48668;BME280;34453;52.198;5.004;2023-08-24T12:28:08;101442.88;;;23.00;100.00
48668;BME280;34453;52.198;5.004;2023-08-24T12:30:48;101436.72;;;22.92;100.00
48668;BME280;34453;52.198;5.004;2023-08-24T12:33:27;101439.59;;;22.91;100.00
48668;BME280;34453;52.198;5.004;2023-08-24T12:35:54;101443.06;;;22.91;100.00
48668;BME280;34453;52.198;5.004;2023-08-24T12:38:21;101441.84;;;22.87;100.00
48668;BME280;34453;52.198;5.004;2023-08-24T12:40:46;101427.88;;;22.92;100.00
48668;BME280;34453;52.198;5.004;2023-08-24T12:43:12;101416.00;;;23.01;100.00
48668;BME280;34453;52.198;5.004;2023-08-24T12:45:38;101397.09;;;23.03;100.00
48668;BME280;34453;52.198;5.004;2023-08-24T12:48:04;101398.50;;;23.12;100.00